Terminal Aerodrome Forecast
Issued by NWS

Home | Current Version | Previous Version | Text Only | Print | Product List | Glossary On
Versions: 1 2 3 4 5 6 7 8 9 10 11 12 13 14 15 16 17 18
566
FTUS44 KLZK 211726
TAFLIT
TAF
KLIT 211726Z 2118/2218 20008KT P6SM SCT025 BKN050
     FM220100 17003KT P6SM VCFG SKC
     FM220900 00000KT 5SM BR SCT005
     FM221400 18007KT P6SM SCT050=

USA.gov is the U.S. government's official web portal to all federal, state and local government web resources and services.